sensor_id;sensor_type;location;lat;lon;timestamp;P1;durP1;ratioP1;P2;durP2;ratioP2
68072;SDS011;54862;51.502;7.446;2023-07-16T00:02:01;7.95;;;2.75;;
68072;SDS011;54862;51.502;7.446;2023-07-16T00:04:31;7.00;;;2.47;;
68072;SDS011;54862;51.502;7.446;2023-07-16T00:06:58;4.93;;;2.40;;
68072;SDS011;54862;51.502;7.446;2023-07-16T00:09:24;6.95;;;2.50;;
68072;SDS011;54862;51.502;7.446;2023-07-16T00:11:50;7.63;;;2.80;;
68072;SDS011;54862;51.502;7.446;2023-07-16T00:14:17;6.20;;;2.58;;
68072;SDS011;54862;51.502;7.446;2023-07-16T00:16:45;6.40;;;2.30;;
68072;SDS011;54862;51.502;7.446;2023-07-16T00:19:11;5.28;;;2.30;;
68072;SDS011;54862;51.502;7.446;2023-07-16T00:21:42;6.70;;;2.30;;
68072;SDS011;54862;51.502;7.446;2023-07-16T00:24:08;4.75;;;2.40;;
68072;SDS011;54862;51.502;7.446;2023-07-16T00:26:34;6.00;;;2.80;;
68072;SDS011;54862;51.502;7.446;2023-07-16T00:29:00;6.55;;;2.25;;
68072;SDS011;54862;51.502;7.446;2023-07-16T00:31:28;4.47;;;2.40;;
68072;SDS011;54862;51.502;7.446;2023-07-16T00:33:54;5.22;;;2.55;;
68072;SDS011;54862;51.502;7.446;2023-07-16T00:36:22;8.27;;;2.60;;
68072;SDS011;54862;51.502;7.446;2023-07-16T00:38:48;5.57;;;2.20;;
68072;SDS011;54862;51.502;7.446;2023-07-16T00:41:17;6.43;;;2.70;;
68072;SDS011;54862;51.502;7.446;2023-07-16T00:43:43;5.82;;;2.58;;
68072;SDS011;54862;51.502;7.446;2023-07-16T00:46:09;5.53;;;2.50;;
68072;SDS011;54862;51.502;7.446;2023-07-16T00:48:35;7.50;;;2.70;;
68072;SDS011;54862;51.502;7.446;2023-07-16T00:51:02;5.80;;;2.42;;
68072;SDS011;54862;51.502;7.446;2023-07-16T00:53:30;6.60;;;2.85;;
68072;SDS011;54862;51.502;7.446;2023-07-16T00:55:59;7.55;;;2.35;;
68072;SDS011;54862;51.502;7.446;2023-07-16T00:58:25;5.75;;;2.70;;
68072;SDS011;54862;51.502;7.446;2023-07-16T01:00:51;5.53;;;2.30;;
68072;SDS011;54862;51.502;7.446;2023-07-16T01:03:20;5.85;;;2.30;;
68072;SDS011;54862;51.502;7.446;2023-07-16T01:08:12;5.97;;;2.35;;
68072;SDS011;54862;51.502;7.446;2023-07-16T01:10:39;6.25;;;2.20;;
68072;SDS011;54862;51.502;7.446;2023-07-16T01:13:06;4.95;;;2.35;;
68072;SDS011;54862;51.502;7.446;2023-07-16T01:15:32;6.18;;;2.30;;
68072;SDS011;54862;51.502;7.446;2023-07-16T01:18:01;5.82;;;2.20;;
68072;SDS011;54862;51.502;7.446;2023-07-16T01:20:27;4.78;;;2.28;;
68072;SDS011;54862;51.502;7.446;2023-07-16T01:30:41;8.60;;;2.60;;
68072;SDS011;54862;51.502;7.446;2023-07-16T01:33:09;5.18;;;2.28;;
68072;SDS011;54862;51.502;7.446;2023-07-16T01:35:36;4.63;;;2.20;;
68072;SDS011;54862;51.502;7.446;2023-07-16T01:38:05;6.55;;;2.55;;
68072;SDS011;54862;51.502;7.446;2023-07-16T01:40:31;6.50;;;2.40;;
68072;SDS011;54862;51.502;7.446;2023-07-16T01:43:01;3.70;;;2.25;;
68072;SDS011;54862;51.502;7.446;2023-07-16T01:45:27;8.25;;;2.78;;
68072;SDS011;54862;51.502;7.446;2023-07-16T01:50:28;7.35;;;2.42;;
68072;SDS011;54862;51.502;7.446;2023-07-16T01:52:58;5.25;;;3.00;;
68072;SDS011;54862;51.502;7.446;2023-07-16T01:55:27;5.78;;;2.45;;
68072;SDS011;54862;51.502;7.446;2023-07-16T01:57:53;5.93;;;2.42;;
68072;SDS011;54862;51.502;7.446;2023-07-16T02:00:21;5.90;;;2.40;;
68072;SDS011;54862;51.502;7.446;2023-07-16T02:02:47;4.25;;;2.33;;
68072;SDS011;54862;51.502;7.446;2023-07-16T02:05:14;5.78;;;2.22;;
68072;SDS011;54862;51.502;7.446;2023-07-16T02:07:40;5.80;;;2.30;;
68072;SDS011;54862;51.502;7.446;2023-07-16T02:10:06;5.55;;;2.40;;
68072;SDS011;54862;51.502;7.446;2023-07-16T02:12:35;5.22;;;2.30;;
68072;SDS011;54862;51.502;7.446;2023-07-16T02:15:01;9.45;;;2.65;;
68072;SDS011;54862;51.502;7.446;2023-07-16T02:17:27;3.92;;;1.95;;
68072;SDS011;54862;51.502;7.446;2023-07-16T02:19:55;6.72;;;2.78;;
68072;SDS011;54862;51.502;7.446;2023-07-16T02:22:21;3.88;;;2.15;;
68072;SDS011;54862;51.502;7.446;2023-07-16T02:24:47;6.30;;;2.20;;
68072;SDS011;54862;51.502;7.446;2023-07-16T02:27:15;6.32;;;2.30;;
68072;SDS011;54862;51.502;7.446;2023-07-16T02:29:41;7.97;;;2.40;;
68072;SDS011;54862;51.502;7.446;2023-07-16T02:32:07;5.55;;;2.53;;
68072;SDS011;54862;51.502;7.446;2023-07-16T02:34:35;8.32;;;2.35;;
68072;SDS011;54862;51.502;7.446;2023-07-16T02:37:01;7.22;;;2.35;;
68072;SDS011;54862;51.502;7.446;2023-07-16T02:39:30;6.13;;;2.22;;
68072;SDS011;54862;51.502;7.446;2023-07-16T02:41:56;7.95;;;2.90;;
68072;SDS011;54862;51.502;7.446;2023-07-16T02:44:22;5.90;;;2.22;;
68072;SDS011;54862;51.502;7.446;2023-07-16T02:46:48;8.05;;;2.47;;
68072;SDS011;54862;51.502;7.446;2023-07-16T02:49:17;11.52;;;3.15;;
68072;SDS011;54862;51.502;7.446;2023-07-16T02:51:45;5.63;;;2.40;;
68072;SDS011;54862;51.502;7.446;2023-07-16T02:54:11;4.63;;;2.30;;
68072;SDS011;54862;51.502;7.446;2023-07-16T02:56:37;5.80;;;2.47;;
68072;SDS011;54862;51.502;7.446;2023-07-16T02:59:05;6.82;;;2.50;;
68072;SDS011;54862;51.502;7.446;2023-07-16T03:01:31;5.90;;;2.28;;
68072;SDS011;54862;51.502;7.446;2023-07-16T03:03:57;9.20;;;2.30;;
68072;SDS011;54862;51.502;7.446;2023-07-16T03:06:23;7.10;;;2.40;;
68072;SDS011;54862;51.502;7.446;2023-07-16T03:08:51;4.25;;;2.15;;
68072;SDS011;54862;51.502;7.446;2023-07-16T03:11:20;6.68;;;2.58;;
68072;SDS011;54862;51.502;7.446;2023-07-16T03:13:46;9.38;;;2.70;;
68072;SDS011;54862;51.502;7.446;2023-07-16T03:16:12;8.43;;;2.58;;
68072;SDS011;54862;51.502;7.446;2023-07-16T03:18:38;9.63;;;2.50;;
68072;SDS011;54862;51.502;7.446;2023-07-16T03:21:04;7.43;;;2.25;;
68072;SDS011;54862;51.502;7.446;2023-07-16T03:23:30;10.02;;;2.40;;
68072;SDS011;54862;51.502;7.446;2023-07-16T03:26:01;9.73;;;2.83;;
68072;SDS011;54862;51.502;7.446;2023-07-16T03:28:27;8.23;;;2.17;;
68072;SDS011;54862;51.502;7.446;2023-07-16T03:30:53;4.72;;;2.30;;
68072;SDS011;54862;51.502;7.446;2023-07-16T03:33:21;5.82;;;2.08;;
68072;SDS011;54862;51.502;7.446;2023-07-16T03:35:48;7.32;;;2.20;;
68072;SDS011;54862;51.502;7.446;2023-07-16T03:38:17;7.15;;;2.40;;
68072;SDS011;54862;51.502;7.446;2023-07-16T03:40:45;8.68;;;2.25;;
68072;SDS011;54862;51.502;7.446;2023-07-16T03:43:14;5.55;;;2.30;;
68072;SDS011;54862;51.502;7.446;2023-07-16T03:45:43;7.10;;;2.42;;
68072;SDS011;54862;51.502;7.446;2023-07-16T03:48:13;7.05;;;2.15;;
68072;SDS011;54862;51.502;7.446;2023-07-16T03:50:39;7.53;;;2.45;;
68072;SDS011;54862;51.502;7.446;2023-07-16T03:53:05;5.78;;;2.20;;
68072;SDS011;54862;51.502;7.446;2023-07-16T03:55:31;6.97;;;2.05;;
68072;SDS011;54862;51.502;7.446;2023-07-16T03:57:57;8.32;;;2.33;;
68072;SDS011;54862;51.502;7.446;2023-07-16T04:00:23;5.55;;;2.20;;
68072;SDS011;54862;51.502;7.446;2023-07-16T04:02:49;8.88;;;3.92;;
68072;SDS011;54862;51.502;7.446;2023-07-16T04:05:15;6.13;;;2.40;;
68072;SDS011;54862;51.502;7.446;2023-07-16T04:07:44;6.65;;;2.30;;
68072;SDS011;54862;51.502;7.446;2023-07-16T04:10:12;9.60;;;2.38;;
68072;SDS011;54862;51.502;7.446;2023-07-16T04:12:40;7.30;;;2.15;;
68072;SDS011;54862;51.502;7.446;2023-07-16T04:15:07;8.88;;;2.50;;
68072;SDS011;54862;51.502;7.446;2023-07-16T04:17:36;6.63;;;2.35;;
68072;SDS011;54862;51.502;7.446;2023-07-16T04:20:02;8.40;;;2.50;;
68072;SDS011;54862;51.502;7.446;2023-07-16T04:22:31;5.57;;;2.33;;
68072;SDS011;54862;51.502;7.446;2023-07-16T04:25:00;8.40;;;2.60;;
68072;SDS011;54862;51.502;7.446;2023-07-16T04:27:28;10.13;;;2.60;;
68072;SDS011;54862;51.502;7.446;2023-07-16T04:29:56;7.68;;;2.67;;
68072;SDS011;54862;51.502;7.446;2023-07-16T04:32:27;10.30;;;2.67;;
68072;SDS011;54862;51.502;7.446;2023-07-16T04:34:53;7.00;;;2.30;;
68072;SDS011;54862;51.502;7.446;2023-07-16T04:37:22;8.18;;;2.10;;
68072;SDS011;54862;51.502;7.446;2023-07-16T04:39:48;6.88;;;2.38;;
68072;SDS011;54862;51.502;7.446;2023-07-16T04:42:13;6.40;;;2.42;;
68072;SDS011;54862;51.502;7.446;2023-07-16T04:44:41;7.82;;;2.45;;
68072;SDS011;54862;51.502;7.446;2023-07-16T04:47:09;6.90;;;2.42;;
68072;SDS011;54862;51.502;7.446;2023-07-16T04:49:35;7.47;;;2.38;;
68072;SDS011;54862;51.502;7.446;2023-07-16T04:52:01;9.35;;;2.70;;
68072;SDS011;54862;51.502;7.446;2023-07-16T04:54:28;6.53;;;2.55;;
68072;SDS011;54862;51.502;7.446;2023-07-16T04:56:53;8.73;;;2.75;;
68072;SDS011;54862;51.502;7.446;2023-07-16T04:59:20;11.27;;;2.88;;
68072;SDS011;54862;51.502;7.446;2023-07-16T05:01:48;8.45;;;2.50;;
68072;SDS011;54862;51.502;7.446;2023-07-16T05:04:16;7.88;;;2.78;;
68072;SDS011;54862;51.502;7.446;2023-07-16T05:06:42;9.40;;;2.90;;
68072;SDS011;54862;51.502;7.446;2023-07-16T05:09:13;7.25;;;2.38;;
68072;SDS011;54862;51.502;7.446;2023-07-16T05:11:39;9.23;;;2.88;;
68072;SDS011;54862;51.502;7.446;2023-07-16T05:14:05;7.47;;;2.38;;
68072;SDS011;54862;51.502;7.446;2023-07-16T05:16:34;7.20;;;2.80;;
68072;SDS011;54862;51.502;7.446;2023-07-16T05:19:00;8.18;;;2.53;;
68072;SDS011;54862;51.502;7.446;2023-07-16T05:21:25;8.35;;;2.75;;
68072;SDS011;54862;51.502;7.446;2023-07-16T05:23:54;6.13;;;2.75;;
68072;SDS011;54862;51.502;7.446;2023-07-16T05:26:22;7.63;;;3.03;;
68072;SDS011;54862;51.502;7.446;2023-07-16T05:28:48;9.25;;;2.70;;
68072;SDS011;54862;51.502;7.446;2023-07-16T05:31:16;8.25;;;3.25;;
68072;SDS011;54862;51.502;7.446;2023-07-16T05:33:42;8.65;;;2.60;;
68072;SDS011;54862;51.502;7.446;2023-07-16T05:36:08;8.38;;;2.55;;
68072;SDS011;54862;51.502;7.446;2023-07-16T05:38:37;11.98;;;3.10;;
68072;SDS011;54862;51.502;7.446;2023-07-16T05:41:05;8.60;;;2.83;;
68072;SDS011;54862;51.502;7.446;2023-07-16T05:43:33;8.32;;;2.80;;
68072;SDS011;54862;51.502;7.446;2023-07-16T05:46:02;10.40;;;2.70;;
68072;SDS011;54862;51.502;7.446;2023-07-16T05:48:30;13.57;;;3.13;;
68072;SDS011;54862;51.502;7.446;2023-07-16T05:50:58;19.15;;;3.33;;
68072;SDS011;54862;51.502;7.446;2023-07-16T05:53:24;7.90;;;2.67;;
68072;SDS011;54862;51.502;7.446;2023-07-16T05:55:50;9.25;;;2.80;;
68072;SDS011;54862;51.502;7.446;2023-07-16T05:58:17;11.52;;;2.95;;
68072;SDS011;54862;51.502;7.446;2023-07-16T06:00:45;9.75;;;2.90;;
68072;SDS011;54862;51.502;7.446;2023-07-16T06:03:13;7.93;;;2.90;;
68072;SDS011;54862;51.502;7.446;2023-07-16T06:05:42;11.15;;;2.88;;
68072;SDS011;54862;51.502;7.446;2023-07-16T06:08:08;12.85;;;2.95;;
68072;SDS011;54862;51.502;7.446;2023-07-16T06:10:34;10.27;;;3.58;;
68072;SDS011;54862;51.502;7.446;2023-07-16T06:13:00;11.02;;;3.53;;
68072;SDS011;54862;51.502;7.446;2023-07-16T06:15:30;10.90;;;3.33;;
68072;SDS011;54862;51.502;7.446;2023-07-16T06:17:56;10.10;;;3.10;;
68072;SDS011;54862;51.502;7.446;2023-07-16T06:20:22;10.05;;;3.22;;
68072;SDS011;54862;51.502;7.446;2023-07-16T06:22:48;9.30;;;3.33;;
68072;SDS011;54862;51.502;7.446;2023-07-16T06:25:14;7.53;;;3.30;;
68072;SDS011;54862;51.502;7.446;2023-07-16T06:27:40;9.75;;;3.47;;
68072;SDS011;54862;51.502;7.446;2023-07-16T06:30:06;9.60;;;3.50;;
68072;SDS011;54862;51.502;7.446;2023-07-16T06:32:32;12.88;;;3.33;;
68072;SDS011;54862;51.502;7.446;2023-07-16T06:35:01;9.98;;;3.70;;
68072;SDS011;54862;51.502;7.446;2023-07-16T06:37:30;12.13;;;3.58;;
68072;SDS011;54862;51.502;7.446;2023-07-16T06:39:58;9.40;;;3.67;;
68072;SDS011;54862;51.502;7.446;2023-07-16T06:42:24;10.50;;;3.50;;
68072;SDS011;54862;51.502;7.446;2023-07-16T06:44:50;8.20;;;3.53;;
68072;SDS011;54862;51.502;7.446;2023-07-16T06:47:16;9.80;;;3.72;;
68072;SDS011;54862;51.502;7.446;2023-07-16T06:49:44;8.95;;;4.13;;
68072;SDS011;54862;51.502;7.446;2023-07-16T06:52:20;8.80;;;3.60;;
68072;SDS011;54862;51.502;7.446;2023-07-16T06:54:46;9.80;;;3.75;;
68072;SDS011;54862;51.502;7.446;2023-07-16T06:57:12;9.50;;;3.80;;
68072;SDS011;54862;51.502;7.446;2023-07-16T06:59:38;9.38;;;3.90;;
68072;SDS011;54862;51.502;7.446;2023-07-16T07:02:06;10.40;;;4.18;;
68072;SDS011;54862;51.502;7.446;2023-07-16T07:04:34;13.73;;;4.15;;
68072;SDS011;54862;51.502;7.446;2023-07-16T07:07:00;11.80;;;4.32;;
68072;SDS011;54862;51.502;7.446;2023-07-16T07:09:29;12.45;;;4.30;;
68072;SDS011;54862;51.502;7.446;2023-07-16T07:11:55;10.98;;;4.20;;
68072;SDS011;54862;51.502;7.446;2023-07-16T07:14:21;10.85;;;4.40;;
68072;SDS011;54862;51.502;7.446;2023-07-16T07:16:47;13.35;;;4.35;;
68072;SDS011;54862;51.502;7.446;2023-07-16T07:19:13;11.73;;;4.43;;
68072;SDS011;54862;51.502;7.446;2023-07-16T07:21:39;9.15;;;3.45;;
68072;SDS011;54862;51.502;7.446;2023-07-16T07:24:05;9.75;;;4.18;;
68072;SDS011;54862;51.502;7.446;2023-07-16T07:26:31;9.88;;;3.95;;
68072;SDS011;54862;51.502;7.446;2023-07-16T07:28:57;13.10;;;4.13;;
68072;SDS011;54862;51.502;7.446;2023-07-16T07:31:25;10.90;;;3.78;;
68072;SDS011;54862;51.502;7.446;2023-07-16T07:33:51;12.50;;;4.47;;
68072;SDS011;54862;51.502;7.446;2023-07-16T07:36:18;9.38;;;3.85;;
68072;SDS011;54862;51.502;7.446;2023-07-16T07:38:44;10.57;;;4.28;;
68072;SDS011;54862;51.502;7.446;2023-07-16T07:41:13;10.23;;;4.40;;
68072;SDS011;54862;51.502;7.446;2023-07-16T07:43:39;10.65;;;3.80;;
68072;SDS011;54862;51.502;7.446;2023-07-16T07:46:07;9.52;;;3.97;;
68072;SDS011;54862;51.502;7.446;2023-07-16T07:48:35;8.73;;;3.63;;
68072;SDS011;54862;51.502;7.446;2023-07-16T07:51:04;9.75;;;3.53;;
68072;SDS011;54862;51.502;7.446;2023-07-16T07:53:30;10.30;;;3.80;;
68072;SDS011;54862;51.502;7.446;2023-07-16T07:55:56;13.38;;;4.28;;
68072;SDS011;54862;51.502;7.446;2023-07-16T07:58:22;9.00;;;3.95;;
68072;SDS011;54862;51.502;7.446;2023-07-16T08:00:50;9.25;;;3.92;;
68072;SDS011;54862;51.502;7.446;2023-07-16T08:03:16;10.50;;;3.95;;
68072;SDS011;54862;51.502;7.446;2023-07-16T08:05:42;10.77;;;3.97;;
68072;SDS011;54862;51.502;7.446;2023-07-16T08:08:08;11.02;;;3.95;;
68072;SDS011;54862;51.502;7.446;2023-07-16T08:10:36;9.10;;;3.75;;
68072;SDS011;54862;51.502;7.446;2023-07-16T08:13:02;11.57;;;3.88;;
68072;SDS011;54862;51.502;7.446;2023-07-16T08:15:31;10.98;;;3.90;;
68072;SDS011;54862;51.502;7.446;2023-07-16T08:17:57;11.82;;;3.85;;
68072;SDS011;54862;51.502;7.446;2023-07-16T08:20:24;9.85;;;3.95;;
68072;SDS011;54862;51.502;7.446;2023-07-16T08:22:53;12.32;;;4.03;;
68072;SDS011;54862;51.502;7.446;2023-07-16T08:25:18;11.38;;;4.20;;
68072;SDS011;54862;51.502;7.446;2023-07-16T08:27:45;9.63;;;4.15;;
68072;SDS011;54862;51.502;7.446;2023-07-16T08:30:13;10.57;;;4.57;;
68072;SDS011;54862;51.502;7.446;2023-07-16T08:32:41;9.85;;;4.13;;
68072;SDS011;54862;51.502;7.446;2023-07-16T08:35:07;12.07;;;4.18;;
68072;SDS011;54862;51.502;7.446;2023-07-16T08:40:06;13.65;;;4.50;;
68072;SDS011;54862;51.502;7.446;2023-07-16T08:42:37;11.52;;;4.10;;
68072;SDS011;54862;51.502;7.446;2023-07-16T08:45:05;10.95;;;4.10;;
68072;SDS011;54862;51.502;7.446;2023-07-16T08:47:32;10.43;;;3.88;;
68072;SDS011;54862;51.502;7.446;2023-07-16T08:49:58;9.75;;;4.18;;
68072;SDS011;54862;51.502;7.446;2023-07-16T08:52:25;8.35;;;3.60;;
68072;SDS011;54862;51.502;7.446;2023-07-16T08:54:54;10.23;;;4.18;;
68072;SDS011;54862;51.502;7.446;2023-07-16T08:57:20;10.32;;;4.00;;
68072;SDS011;54862;51.502;7.446;2023-07-16T08:59:47;9.73;;;3.88;;
68072;SDS011;54862;51.502;7.446;2023-07-16T09:02:13;11.23;;;3.92;;
68072;SDS011;54862;51.502;7.446;2023-07-16T09:04:42;12.20;;;3.70;;
68072;SDS011;54862;51.502;7.446;2023-07-16T09:07:10;11.63;;;3.97;;
68072;SDS011;54862;51.502;7.446;2023-07-16T09:09:39;11.77;;;4.35;;
68072;SDS011;54862;51.502;7.446;2023-07-16T09:12:05;10.60;;;3.95;;
68072;SDS011;54862;51.502;7.446;2023-07-16T09:14:31;10.95;;;3.70;;
68072;SDS011;54862;51.502;7.446;2023-07-16T09:16:57;9.95;;;3.78;;
68072;SDS011;54862;51.502;7.446;2023-07-16T09:19:24;9.27;;;3.53;;
68072;SDS011;54862;51.502;7.446;2023-07-16T09:21:51;13.02;;;4.63;;
68072;SDS011;54862;51.502;7.446;2023-07-16T09:24:19;11.23;;;3.60;;
68072;SDS011;54862;51.502;7.446;2023-07-16T09:26:53;12.07;;;4.35;;
68072;SDS011;54862;51.502;7.446;2023-07-16T09:29:20;8.18;;;3.75;;
68072;SDS011;54862;51.502;7.446;2023-07-16T09:31:59;12.68;;;3.95;;
68072;SDS011;54862;51.502;7.446;2023-07-16T09:34:27;8.05;;;3.53;;
68072;SDS011;54862;51.502;7.446;2023-07-16T09:36:53;13.38;;;3.80;;
68072;SDS011;54862;51.502;7.446;2023-07-16T09:39:19;9.13;;;3.60;;
68072;SDS011;54862;51.502;7.446;2023-07-16T09:41:46;9.18;;;3.65;;
68072;SDS011;54862;51.502;7.446;2023-07-16T09:44:13;8.88;;;3.15;;
68072;SDS011;54862;51.502;7.446;2023-07-16T09:46:39;10.27;;;3.58;;
68072;SDS011;54862;51.502;7.446;2023-07-16T09:49:06;9.02;;;3.10;;
68072;SDS011;54862;51.502;7.446;2023-07-16T09:51:32;12.88;;;3.53;;
68072;SDS011;54862;51.502;7.446;2023-07-16T09:54:02;7.80;;;2.92;;
68072;SDS011;54862;51.502;7.446;2023-07-16T09:56:32;7.78;;;2.92;;
68072;SDS011;54862;51.502;7.446;2023-07-16T09:58:59;9.85;;;3.42;;
68072;SDS011;54862;51.502;7.446;2023-07-16T10:01:29;10.95;;;3.72;;
68072;SDS011;54862;51.502;7.446;2023-07-16T10:03:55;9.68;;;3.45;;
68072;SDS011;54862;51.502;7.446;2023-07-16T10:06:21;10.27;;;3.60;;
68072;SDS011;54862;51.502;7.446;2023-07-16T10:08:50;9.52;;;3.22;;
68072;SDS011;54862;51.502;7.446;2023-07-16T10:11:16;11.45;;;3.38;;
68072;SDS011;54862;51.502;7.446;2023-07-16T10:13:45;7.60;;;3.30;;
68072;SDS011;54862;51.502;7.446;2023-07-16T10:16:20;7.40;;;3.10;;
68072;SDS011;54862;51.502;7.446;2023-07-16T10:18:52;7.68;;;3.40;;
68072;SDS011;54862;51.502;7.446;2023-07-16T10:21:24;8.30;;;3.30;;
68072;SDS011;54862;51.502;7.446;2023-07-16T10:23:57;7.68;;;3.20;;
68072;SDS011;54862;51.502;7.446;2023-07-16T10:26:26;7.85;;;3.38;;
68072;SDS011;54862;51.502;7.446;2023-07-16T10:28:56;7.35;;;3.20;;
68072;SDS011;54862;51.502;7.446;2023-07-16T10:31:22;7.45;;;3.13;;
68072;SDS011;54862;51.502;7.446;2023-07-16T10:36:24;8.85;;;3.42;;
68072;SDS011;54862;51.502;7.446;2023-07-16T10:38:50;10.45;;;3.10;;
68072;SDS011;54862;51.502;7.446;2023-07-16T10:41:17;8.18;;;3.53;;
68072;SDS011;54862;51.502;7.446;2023-07-16T10:43:43;9.30;;;3.20;;
68072;SDS011;54862;51.502;7.446;2023-07-16T10:46:11;11.45;;;3.30;;
68072;SDS011;54862;51.502;7.446;2023-07-16T10:48:37;6.25;;;3.00;;
68072;SDS011;54862;51.502;7.446;2023-07-16T10:51:03;9.38;;;3.40;;
68072;SDS011;54862;51.502;7.446;2023-07-16T10:53:29;6.32;;;2.83;;
68072;SDS011;54862;51.502;7.446;2023-07-16T10:55:55;6.90;;;3.03;;
68072;SDS011;54862;51.502;7.446;2023-07-16T10:58:27;9.02;;;3.25;;
68072;SDS011;54862;51.502;7.446;2023-07-16T11:00:53;7.18;;;3.00;;
68072;SDS011;54862;51.502;7.446;2023-07-16T11:03:19;6.90;;;2.80;;
68072;SDS011;54862;51.502;7.446;2023-07-16T11:05:45;6.93;;;2.88;;
68072;SDS011;54862;51.502;7.446;2023-07-16T11:08:20;9.20;;;2.78;;
68072;SDS011;54862;51.502;7.446;2023-07-16T11:10:52;6.35;;;2.65;;
68072;SDS011;54862;51.502;7.446;2023-07-16T11:13:18;9.90;;;3.20;;
68072;SDS011;54862;51.502;7.446;2023-07-16T11:15:44;8.23;;;3.20;;
68072;SDS011;54862;51.502;7.446;2023-07-16T11:18:12;7.65;;;2.88;;
68072;SDS011;54862;51.502;7.446;2023-07-16T11:20:40;10.80;;;3.08;;
68072;SDS011;54862;51.502;7.446;2023-07-16T11:23:09;8.75;;;2.88;;
68072;SDS011;54862;51.502;7.446;2023-07-16T11:25:36;6.57;;;2.72;;
68072;SDS011;54862;51.502;7.446;2023-07-16T11:28:02;8.52;;;2.97;;
68072;SDS011;54862;51.502;7.446;2023-07-16T11:30:28;7.45;;;2.78;;
68072;SDS011;54862;51.502;7.446;2023-07-16T11:32:54;6.88;;;2.92;;
68072;SDS011;54862;51.502;7.446;2023-07-16T11:35:20;9.48;;;3.15;;
68072;SDS011;54862;51.502;7.446;2023-07-16T11:37:49;8.80;;;3.13;;
68072;SDS011;54862;51.502;7.446;2023-07-16T11:40:16;10.73;;;3.10;;
68072;SDS011;54862;51.502;7.446;2023-07-16T11:42:42;7.72;;;3.15;;
68072;SDS011;54862;51.502;7.446;2023-07-16T11:47:43;7.83;;;2.93;;
68072;SDS011;54862;51.502;7.446;2023-07-16T11:50:09;7.63;;;3.17;;
68072;SDS011;54862;51.502;7.446;2023-07-16T11:52:37;7.13;;;3.15;;
68072;SDS011;54862;51.502;7.446;2023-07-16T11:55:04;8.18;;;3.15;;
68072;SDS011;54862;51.502;7.446;2023-07-16T11:57:30;7.55;;;2.90;;
68072;SDS011;54862;51.502;7.446;2023-07-16T11:59:56;6.93;;;3.35;;
68072;SDS011;54862;51.502;7.446;2023-07-16T12:02:22;7.20;;;2.95;;
68072;SDS011;54862;51.502;7.446;2023-07-16T12:04:50;7.00;;;3.00;;
68072;SDS011;54862;51.502;7.446;2023-07-16T12:09:45;8.55;;;2.85;;
68072;SDS011;54862;51.502;7.446;2023-07-16T12:12:11;8.85;;;3.13;;
68072;SDS011;54862;51.502;7.446;2023-07-16T12:14:37;7.45;;;3.22;;
68072;SDS011;54862;51.502;7.446;2023-07-16T12:17:03;7.88;;;2.92;;
68072;SDS011;54862;51.502;7.446;2023-07-16T12:19:29;6.57;;;2.92;;
68072;SDS011;54862;51.502;7.446;2023-07-16T12:21:55;7.82;;;3.38;;
68072;SDS011;54862;51.502;7.446;2023-07-16T12:24:22;7.75;;;3.28;;
68072;SDS011;54862;51.502;7.446;2023-07-16T12:26:51;8.13;;;3.30;;
68072;SDS011;54862;51.502;7.446;2023-07-16T12:29:21;8.50;;;3.42;;
68072;SDS011;54862;51.502;7.446;2023-07-16T12:31:48;7.75;;;2.95;;
68072;SDS011;54862;51.502;7.446;2023-07-16T12:34:14;9.32;;;3.10;;
68072;SDS011;54862;51.502;7.446;2023-07-16T12:36:43;6.95;;;3.05;;
68072;SDS011;54862;51.502;7.446;2023-07-16T12:39:11;10.80;;;4.20;;
68072;SDS011;54862;51.502;7.446;2023-07-16T12:41:37;11.13;;;3.45;;
68072;SDS011;54862;51.502;7.446;2023-07-16T12:44:03;7.95;;;3.03;;
68072;SDS011;54862;51.502;7.446;2023-07-16T12:46:29;8.43;;;2.80;;
68072;SDS011;54862;51.502;7.446;2023-07-16T12:48:55;7.90;;;3.25;;
68072;SDS011;54862;51.502;7.446;2023-07-16T12:51:21;7.75;;;3.20;;
68072;SDS011;54862;51.502;7.446;2023-07-16T12:53:47;8.10;;;3.33;;
68072;SDS011;54862;51.502;7.446;2023-07-16T12:56:13;8.32;;;3.28;;
68072;SDS011;54862;51.502;7.446;2023-07-16T12:58:39;8.00;;;3.47;;
68072;SDS011;54862;51.502;7.446;2023-07-16T13:01:07;8.75;;;3.30;;
68072;SDS011;54862;51.502;7.446;2023-07-16T13:03:36;12.38;;;3.72;;
68072;SDS011;54862;51.502;7.446;2023-07-16T13:06:02;10.45;;;3.20;;
68072;SDS011;54862;51.502;7.446;2023-07-16T13:08:29;9.40;;;3.58;;
68072;SDS011;54862;51.502;7.446;2023-07-16T13:10:57;8.05;;;3.53;;
68072;SDS011;54862;51.502;7.446;2023-07-16T13:13:26;7.85;;;3.45;;
68072;SDS011;54862;51.502;7.446;2023-07-16T13:15:52;10.40;;;3.13;;
68072;SDS011;54862;51.502;7.446;2023-07-16T13:18:18;8.73;;;3.42;;
68072;SDS011;54862;51.502;7.446;2023-07-16T13:20:44;7.45;;;3.35;;
68072;SDS011;54862;51.502;7.446;2023-07-16T13:23:10;9.27;;;3.20;;
68072;SDS011;54862;51.502;7.446;2023-07-16T13:25:36;7.10;;;2.92;;
68072;SDS011;54862;51.502;7.446;2023-07-16T13:28:06;7.10;;;3.45;;
68072;SDS011;54862;51.502;7.446;2023-07-16T13:30:32;7.28;;;2.95;;
68072;SDS011;54862;51.502;7.446;2023-07-16T13:32:58;8.95;;;3.20;;
68072;SDS011;54862;51.502;7.446;2023-07-16T13:35:27;8.68;;;3.05;;
68072;SDS011;54862;51.502;7.446;2023-07-16T13:37:53;8.65;;;3.30;;
68072;SDS011;54862;51.502;7.446;2023-07-16T13:40:19;8.15;;;3.33;;
68072;SDS011;54862;51.502;7.446;2023-07-16T13:42:46;8.40;;;3.30;;
68072;SDS011;54862;51.502;7.446;2023-07-16T13:45:12;7.30;;;2.88;;
68072;SDS011;54862;51.502;7.446;2023-07-16T13:47:41;7.20;;;3.50;;
68072;SDS011;54862;51.502;7.446;2023-07-16T13:50:08;6.97;;;3.45;;
68072;SDS011;54862;51.502;7.446;2023-07-16T13:52:34;9.70;;;3.35;;
68072;SDS011;54862;51.502;7.446;2023-07-16T13:55:00;8.85;;;3.40;;
68072;SDS011;54862;51.502;7.446;2023-07-16T13:57:26;8.48;;;3.40;;
68072;SDS011;54862;51.502;7.446;2023-07-16T13:59:52;8.75;;;3.47;;
68072;SDS011;54862;51.502;7.446;2023-07-16T14:02:18;7.40;;;3.20;;
68072;SDS011;54862;51.502;7.446;2023-07-16T14:04:45;9.60;;;3.65;;
68072;SDS011;54862;51.502;7.446;2023-07-16T14:07:11;7.78;;;3.17;;
68072;SDS011;54862;51.502;7.446;2023-07-16T14:09:39;12.82;;;3.47;;
68072;SDS011;54862;51.502;7.446;2023-07-16T14:12:05;6.00;;;2.95;;
68072;SDS011;54862;51.502;7.446;2023-07-16T14:14:34;18.48;;;3.90;;
68072;SDS011;54862;51.502;7.446;2023-07-16T14:17:00;7.75;;;3.30;;
68072;SDS011;54862;51.502;7.446;2023-07-16T14:19:28;6.32;;;2.90;;
68072;SDS011;54862;51.502;7.446;2023-07-16T14:21:55;7.40;;;3.17;;
68072;SDS011;54862;51.502;7.446;2023-07-16T14:24:21;6.65;;;2.97;;
68072;SDS011;54862;51.502;7.446;2023-07-16T14:26:49;8.30;;;3.05;;
68072;SDS011;54862;51.502;7.446;2023-07-16T14:29:15;7.68;;;3.20;;
68072;SDS011;54862;51.502;7.446;2023-07-16T14:31:43;9.13;;;3.28;;
68072;SDS011;54862;51.502;7.446;2023-07-16T14:34:09;9.70;;;3.25;;
68072;SDS011;54862;51.502;7.446;2023-07-16T14:36:35;8.27;;;3.03;;
68072;SDS011;54862;51.502;7.446;2023-07-16T14:39:01;8.82;;;3.17;;
68072;SDS011;54862;51.502;7.446;2023-07-16T14:41:28;9.77;;;3.47;;
68072;SDS011;54862;51.502;7.446;2023-07-16T14:43:54;7.18;;;3.10;;
68072;SDS011;54862;51.502;7.446;2023-07-16T14:46:20;9.32;;;3.50;;
68072;SDS011;54862;51.502;7.446;2023-07-16T14:48:49;7.10;;;2.90;;
68072;SDS011;54862;51.502;7.446;2023-07-16T14:51:20;7.13;;;3.20;;
68072;SDS011;54862;51.502;7.446;2023-07-16T14:53:46;7.03;;;3.15;;
68072;SDS011;54862;51.502;7.446;2023-07-16T14:56:12;8.70;;;3.65;;
68072;SDS011;54862;51.502;7.446;2023-07-16T14:58:38;7.90;;;3.53;;
68072;SDS011;54862;51.502;7.446;2023-07-16T15:01:07;8.45;;;3.45;;
68072;SDS011;54862;51.502;7.446;2023-07-16T15:03:36;9.35;;;3.58;;
68072;SDS011;54862;51.502;7.446;2023-07-16T15:06:03;10.02;;;3.55;;
68072;SDS011;54862;51.502;7.446;2023-07-16T15:08:29;9.52;;;3.58;;